Time;durP1;ratioP1;P1;durP2;ratioP2;P2;SDS_P1;SDS_P2;PMS_P1;PMS_P2;Temp;Humidity;BMP_temperature;BMP_pressure;BME280_temperature;BME280_humidity;BME280_pressure;Samples;Min_cycle;Max_cycle;Signal;HPM_P1;HPM_P2
2023/02/10 05:48:57;;;;;;;28.95;14.27;;;0.80;99.90;;;;;;6223669;22;20020;-79
2023/02/10 06:10:38;;;;;;;27.48;13.27;;;1.00;99.90;;;;;;6032173;23;20356;-82
2023/02/10 06:19:16;;;;;;;28.55;13.75;;;1.00;99.90;;;;;;6233980;22;20031;-81
2023/02/10 06:21:54;;;;;;;31.83;14.82;;;0.80;99.90;;;;;;6221896;23;20071;-80
2023/02/10 06:28:05;;;;;;;30.95;14.60;;;1.00;99.90;;;;;;6183903;23;20408;-81
2023/02/10 06:31:30;;;;;;;35.03;14.57;;;1.50;99.90;;;;;;6202553;23;20026;-81
2023/02/10 06:34:59;;;;;;;27.30;14.07;;;1.00;99.90;;;;;;6168136;23;20584;-79
2023/02/10 06:41:20;;;;;;;26.23;15.52;;;1.00;99.90;;;;;;6214392;23;20062;-79
2023/02/10 06:44:10;;;;;;;25.23;14.18;;;1.00;99.90;;;;;;6167912;23;20445;-80
2023/02/10 06:47:54;;;;;;;33.63;15.77;;;1.00;99.90;;;;;;6014287;23;20026;-80
2023/02/10 06:51:48;;;;;;;29.30;15.63;;;1.00;99.90;;;;;;5988823;23;20127;-80
2023/02/10 06:58:40;;;;;;;30.60;16.23;;;0.20;99.90;;;;;;5956084;24;20053;-80
2023/02/10 07:02:00;;;;;;;31.35;16.92;;;1.00;99.90;;;;;;5953231;24;20104;-80
2023/02/10 07:08:46;;;;;;;28.50;17.52;;;1.20;99.90;;;;;;5903993;24;20422;-80
2023/02/10 07:11:29;;;;;;;31.98;17.42;;;1.00;99.90;;;;;;5903058;24;20036;-79
2023/02/10 07:14:45;;;;;;;;;;;;;;;;;;;;;
2023/02/10 07:17:48;;;;;;;29.63;17.13;;;1.40;99.90;;;;;;6038706;23;20059;-79
2023/02/10 07:20:21;;;;;;;31.75;17.92;;;1.50;99.90;;;;;;6093840;23;20017;-79
2023/02/10 07:23:00;;;;;;;30.33;17.50;;;1.10;99.90;;;;;;6186963;23;20088;-78
2023/02/10 07:25:37;;;;;;;26.15;18.27;;;1.30;99.90;;;;;;6190356;23;20047;-79
2023/02/10 07:28:33;;;;;;;34.33;17.83;;;1.20;99.90;;;;;;6190887;23;20082;-79
2023/02/10 07:31:53;;;;;;;31.77;16.98;;;1.20;99.90;;;;;;6216827;23;20020;-79
2023/02/10 07:34:36;;;;;;;28.60;17.10;;;1.20;99.90;;;;;;6179772;23;20864;-78
2023/02/10 07:53:16;;;;;;;;;;;;;;;;;;;;;
2023/02/10 08:00:51;;;;;;;30.65;16.08;;;2.30;99.90;;;;;;5986184;24;20047;-81
2023/02/10 08:15:36;;;;;;;25.55;15.98;;;1.60;99.90;;;;;;5954548;24;20457;-80
2023/02/10 10:17:18;;;;;;;29.48;18.73;;;4.60;99.90;;;;;;5181662;27;20684;-83
2023/02/10 10:43:10;;;;;;;34.08;17.77;;;5.60;99.90;;;;;;5062291;28;20048;-83
2023/02/10 10:46:49;;;;;;;;;;;;;;;;;;;;;
2023/02/10 10:58:37;;;;;;;;;;;;;;;;;;;;;
2023/02/10 11:05:26;;;;;;;24.48;13.68;;;7.00;99.90;;;;;;5071076;28;20428;-83
2023/02/10 11:08:02;;;;;;;21.13;12.27;;;6.90;99.90;;;;;;5007550;28;20057;-79
2023/02/10 11:15:00;;;;;;;26.45;11.27;;;7.20;99.90;;;;;;5030420;28;20088;-82
2023/02/10 11:18:09;;;;;;;24.83;11.27;;;7.50;99.90;;;;;;5047049;28;20124;-82
2023/02/10 11:20:38;;;;;;;22.35;10.43;;;7.00;99.90;;;;;;5040657;28;20044;-80
2023/02/10 11:23:55;;;;;;;26.08;10.90;;;7.70;99.90;;;;;;5015078;28;20088;-82
2023/02/10 11:35:21;;;;;;;24.17;9.90;;;8.20;99.90;;;;;;4902716;29;20045;-82
2023/02/10 11:50:38;;;;;;;24.65;9.27;;;8.90;99.90;;;;;;4811819;29;20106;-83
2023/02/10 11:54:36;;;;;;;17.67;8.27;;;8.80;99.90;;;;;;4758739;29;20047;-83
2023/02/10 12:05:51;;;;;;;16.60;6.65;;;8.70;99.90;;;;;;4839134;29;20058;-83
2023/02/10 12:09:23;;;;;;;17.90;8.45;;;8.80;99.90;;;;;;4917762;29;20047;-82
2023/02/10 12:13:10;;;;;;;22.80;8.77;;;8.90;99.90;;;;;;4931226;29;20097;-83
2023/02/10 12:16:50;;;;;;;18.80;6.85;;;8.90;99.90;;;;;;4841374;29;20089;-84
2023/02/10 12:20:48;;;;;;;17.17;7.50;;;8.20;99.90;;;;;;4850382;29;20052;-82
2023/02/10 12:23:52;;;;;;;13.65;5.80;;;8.70;99.90;;;;;;4888227;29;20084;-82
2023/02/10 12:27:02;;;;;;;13.93;5.82;;;9.10;99.90;;;;;;4865659;29;20426;-82
2023/02/10 12:30:32;;;;;;;15.85;5.72;;;8.80;99.90;;;;;;4930256;29;20095;-83
2023/02/10 12:34:08;;;;;;;13.55;5.95;;;8.70;99.90;;;;;;4928346;29;20040;-83
2023/02/10 12:37:30;;;;;;;13.15;5.13;;;8.80;99.90;;;;;;4944690;29;20077;-82
2023/02/10 12:40:33;;;;;;;16.05;6.00;;;8.90;99.90;;;;;;4931019;29;20048;-82
2023/02/10 12:44:01;;;;;;;17.15;5.95;;;9.00;99.90;;;;;;5023946;28;20050;-82
2023/02/10 12:47:34;;;;;;;17.83;5.20;;;9.70;99.90;;;;;;5029212;28;20049;-82
2023/02/10 12:51:10;;;;;;;15.05;5.40;;;9.10;99.90;;;;;;5027416;28;20037;-82
2023/02/10 12:54:19;;;;;;;13.65;4.70;;;9.00;99.90;;;;;;5017429;28;20030;-82
2023/02/10 12:58:08;;;;;;;21.98;6.63;;;8.60;99.90;;;;;;5015261;28;20069;-82
2023/02/10 13:01:28;;;;;;;15.70;4.40;;;8.70;99.90;;;;;;5007303;28;20057;-82
2023/02/10 13:04:52;;;;;;;13.82;5.43;;;8.60;99.90;;;;;;5018398;28;20099;-82
2023/02/10 13:08:02;;;;;;;17.63;5.20;;;8.70;99.90;;;;;;5004213;28;20061;-82
2023/02/10 13:11:35;;;;;;;16.27;4.35;;;8.80;99.90;;;;;;5020372;28;20056;-82
2023/02/10 13:15:05;;;;;;;18.70;5.85;;;8.60;99.90;;;;;;4969469;28;20043;-82
2023/02/10 13:18:01;;;;;;;18.27;5.97;;;8.80;99.90;;;;;;4948006;28;20051;-83
2023/02/10 13:21:44;;;;;;;14.75;4.78;;;8.30;99.90;;;;;;5021404;28;20034;-82
2023/02/10 13:28:57;;;;;;;12.23;4.13;;;8.60;99.90;;;;;;5017272;28;20454;-81
2023/02/10 13:32:32;;;;;;;13.95;4.13;;;8.50;99.90;;;;;;4998853;28;20050;-81
2023/02/10 13:35:30;;;;;;;21.42;4.75;;;8.40;99.90;;;;;;4939659;28;20042;-82
2023/02/10 13:39:02;;;;;;;18.67;5.20;;;9.00;99.90;;;;;;4978644;28;20140;-82
2023/02/10 13:42:22;;;;;;;11.93;4.97;;;9.80;99.90;;;;;;4958938;28;20133;-81
2023/02/10 13:45:10;;;;;;;11.60;4.25;;;8.90;99.90;;;;;;5048861;28;20049;-79
2023/02/10 13:48:28;;;;;;;14.57;4.80;;;8.80;99.90;;;;;;5022366;28;20034;-82
2023/02/10 13:51:14;;;;;;;13.07;5.10;;;8.80;99.90;;;;;;5021065;28;20061;-81
2023/02/10 13:53:42;;;;;;;19.90;5.82;;;9.40;99.90;;;;;;5003877;28;20706;-82
2023/02/10 13:56:27;;;;;;;15.00;4.82;;;8.90;99.90;;;;;;5025612;28;20041;-81
2023/02/10 13:59:18;;;;;;;16.10;5.43;;;8.70;99.90;;;;;;5013261;28;20041;-82
2023/02/10 14:02:10;;;;;;;17.10;5.05;;;8.70;99.90;;;;;;5015892;28;20534;-83
2023/02/10 14:05:13;;;;;;;;;;;;;;;;;;;;;
2023/02/10 14:07:43;;;;;;;17.73;6.40;;;8.60;99.90;;;;;;5007029;28;20049;-82
2023/02/10 14:10:22;;;;;;;14.05;5.22;;;8.50;99.90;;;;;;5022040;28;20050;-81
2023/02/10 14:13:26;;;;;;;15.30;5.55;;;8.40;99.90;;;;;;5019854;28;20117;-82
2023/02/10 14:15:58;;;;;;;15.50;5.85;;;8.40;99.90;;;;;;5026310;28;20038;-82
2023/02/10 14:18:29;;;;;;;11.15;4.70;;;8.20;99.90;;;;;;5023466;28;20037;-82
2023/02/10 14:21:23;;;;;;;15.20;6.47;;;8.50;99.90;;;;;;4992614;28;20041;-82
2023/02/10 14:23:53;;;;;;;15.43;5.50;;;8.30;99.90;;;;;;5000698;28;20104;-81
2023/02/10 14:26:28;;;;;;;19.08;8.52;;;7.90;99.90;;;;;;5007190;28;20029;-81
2023/02/10 14:28:57;;;;;;;15.18;7.03;;;8.30;99.90;;;;;;5004712;28;20073;-81
2023/02/10 14:31:31;;;;;;;21.92;8.43;;;7.80;99.90;;;;;;5005853;28;20041;-81
2023/02/10 14:34:03;;;;;;;18.17;6.63;;;8.20;99.90;;;;;;5026343;28;20080;-81
2023/02/10 14:36:31;;;;;;;13.27;5.85;;;7.40;99.90;;;;;;5004685;28;20041;-81
2023/02/10 14:39:00;;;;;;;13.40;6.13;;;8.10;99.90;;;;;;5003691;28;20120;-81
2023/02/10 14:41:30;;;;;;;13.57;5.65;;;8.30;99.90;;;;;;5019787;28;20042;-81
2023/02/10 14:43:58;;;;;;;12.57;5.78;;;8.10;99.90;;;;;;4994764;28;20171;-81
2023/02/10 14:46:27;;;;;;;13.18;5.88;;;8.10;99.90;;;;;;4997949;28;20045;-80
2023/02/10 14:48:58;;;;;;;16.90;7.40;;;8.10;99.90;;;;;;5031339;28;20814;-81
2023/02/10 14:51:26;;;;;;;17.48;7.10;;;8.10;99.90;;;;;;5014018;28;20037;-80
2023/02/10 14:53:54;;;;;;;15.23;5.55;;;7.70;99.90;;;;;;5015355;28;20097;-81
2023/02/10 14:56:28;;;;;;;18.08;5.55;;;8.10;99.90;;;;;;4996645;28;20041;-82
2023/02/10 14:58:55;;;;;;;13.75;5.72;;;8.00;99.90;;;;;;4999637;28;20046;-81
2023/02/10 15:01:34;;;;;;;13.18;5.72;;;8.00;99.90;;;;;;5046980;28;20045;-81
2023/02/10 15:04:04;;;;;;;16.55;5.63;;;8.00;99.90;;;;;;4994405;28;20827;-81
2023/02/10 15:06:32;;;;;;;16.27;5.57;;;8.10;99.90;;;;;;5034210;28;20042;-81
2023/02/10 15:09:13;;;;;;;14.38;5.38;;;8.10;99.90;;;;;;5018168;28;20558;-81
2023/02/10 15:14:45;;;;;;;15.52;6.25;;;7.90;99.90;;;;;;5014477;28;20064;-81
2023/02/10 15:17:16;;;;;;;12.02;5.85;;;7.80;99.90;;;;;;5012581;28;20473;-82
2023/02/10 15:20:14;;;;;;;14.15;5.45;;;7.70;99.90;;;;;;5050382;28;20045;-80
2023/02/10 15:22:42;;;;;;;14.30;4.85;;;7.70;99.90;;;;;;4994361;28;20045;-81
2023/02/10 15:25:33;;;;;;;22.52;5.82;;;7.80;99.90;;;;;;5002111;28;20046;-81
2023/02/10 15:28:10;;;;;;;11.43;4.35;;;8.60;99.90;;;;;;4997222;28;20037;-81
2023/02/10 15:31:05;;;;;;;15.77;5.40;;;7.80;99.90;;;;;;5027227;28;20047;-82
2023/02/10 15:33:34;;;;;;;19.27;5.53;;;7.50;99.90;;;;;;5021824;28;20101;-81
2023/02/10 15:36:08;;;;;;;14.32;5.35;;;8.40;99.90;;;;;;5014564;28;20095;-80
2023/02/10 15:38:42;;;;;;;20.98;5.93;;;7.40;99.90;;;;;;5015940;28;20049;-80
2023/02/10 15:41:43;;;;;;;20.63;5.32;;;7.40;99.90;;;;;;5015762;28;20120;-79
2023/02/10 15:44:18;;;;;;;18.77;5.78;;;7.00;99.90;;;;;;5017929;28;20558;-80
2023/02/10 15:46:45;;;;;;;18.85;5.32;;;7.30;99.90;;;;;;5034140;28;20052;-81
2023/02/10 15:49:17;;;;;;;17.70;5.82;;;7.40;99.90;;;;;;5007945;28;20438;-81
2023/02/10 15:51:46;;;;;;;16.13;6.70;;;7.30;99.90;;;;;;5051110;28;20040;-81
2023/02/10 15:54:20;;;;;;;15.73;5.55;;;8.30;99.90;;;;;;5021097;28;20034;-81
2023/02/10 15:57:01;;;;;;;18.52;5.88;;;7.70;99.90;;;;;;5025367;28;20060;-81
2023/02/10 15:59:29;;;;;;;22.10;6.00;;;7.30;99.90;;;;;;5009449;28;20084;-80
2023/02/10 16:01:57;;;;;;;15.88;5.70;;;7.20;99.90;;;;;;5002396;28;20041;-81
2023/02/10 16:04:22;;;;;;;16.10;5.32;;;7.50;99.90;;;;;;5022495;28;20045;-81
2023/02/10 16:06:48;;;;;;;14.00;5.47;;;7.10;99.90;;;;;;5025814;28;20034;-81
2023/02/10 16:09:14;;;;;;;16.70;6.35;;;6.90;99.90;;;;;;5002939;28;20128;-81
2023/02/10 16:11:40;;;;;;;20.48;7.40;;;7.90;99.90;;;;;;5023442;28;20429;-81
2023/02/10 16:14:06;;;;;;;15.20;6.18;;;6.80;99.90;;;;;;4981445;28;20041;-81
2023/02/10 16:16:32;;;;;;;16.95;6.85;;;6.80;99.90;;;;;;5012985;28;20038;-80
2023/02/10 16:18:58;;;;;;;18.35;5.95;;;6.90;99.90;;;;;;5021453;28;20041;-78
2023/02/10 16:21:23;;;;;;;19.63;7.50;;;7.30;99.90;;;;;;5019776;28;20041;-80
2023/02/10 16:26:56;;;;;;;15.93;7.10;;;6.40;99.90;;;;;;5015119;23;20059;-83
2023/02/10 16:29:46;;;;;;;14.35;6.72;;;6.50;99.90;;;;;;4955826;28;20200;-82
2023/02/10 16:32:16;;;;;;;23.65;8.25;;;6.30;99.90;;;;;;4949115;28;20101;-85
2023/02/10 16:35:09;;;;;;;16.90;9.43;;;7.10;99.90;;;;;;4957183;28;20796;-82
2023/02/10 16:37:43;;;;;;;16.20;8.60;;;6.10;99.90;;;;;;4921956;29;20035;-82
2023/02/10 16:40:51;;;;;;;19.50;8.60;;;5.80;99.90;;;;;;4937562;29;20039;-81
2023/02/10 16:55:10;;;;;;;;;;;;;;;;;;;;;
2023/02/10 16:57:43;;;;;;;28.90;11.18;;;6.10;99.90;;;;;;4988029;28;20037;-82
2023/02/10 17:00:46;;;;;;;28.40;11.48;;;6.00;99.90;;;;;;4952078;28;20039;-81
2023/02/10 17:03:51;;;;;;;19.30;11.75;;;6.10;99.90;;;;;;4949124;28;20047;-83
2023/02/10 17:06:22;;;;;;;22.05;12.00;;;5.90;99.90;;;;;;4952166;28;20591;-82
2023/02/10 17:08:51;;;;;;;23.67;12.23;;;5.90;99.90;;;;;;4954934;28;20135;-82
2023/02/10 17:11:18;;;;;;;24.23;12.55;;;6.00;99.90;;;;;;4937801;29;20039;-83
2023/02/10 17:13:45;;;;;;;23.98;12.50;;;6.10;99.90;;;;;;4947798;28;20042;-81
2023/02/10 17:16:34;;;;;;;24.48;14.73;;;6.50;99.90;;;;;;4952825;29;20038;-81
2023/02/10 17:19:00;;;;;;;30.65;15.32;;;5.90;99.90;;;;;;4946191;29;20106;-81
2023/02/10 17:21:26;;;;;;;24.63;13.30;;;5.80;99.90;;;;;;4937681;29;20154;-82
2023/02/10 17:23:51;;;;;;;28.77;14.68;;;6.40;99.90;;;;;;4951513;28;20114;-82
2023/02/10 17:26:17;;;;;;;24.15;14.63;;;5.80;99.90;;;;;;4956443;28;20043;-82
2023/02/10 17:28:43;;;;;;;23.90;14.20;;;6.10;99.90;;;;;;4955247;29;20039;-82
2023/02/10 17:31:15;;;;;;;29.27;17.13;;;5.80;99.90;;;;;;4950107;28;20038;-82
2023/02/10 17:33:47;;;;;;;24.80;15.60;;;5.80;99.90;;;;;;4950042;28;20059;-82
2023/02/10 17:36:18;;;;;;;30.60;16.27;;;6.10;99.90;;;;;;4955500;29;20047;-82
2023/02/10 17:38:46;;;;;;;29.23;16.30;;;6.00;99.90;;;;;;4952473;29;20040;-83
2023/02/10 17:41:12;;;;;;;27.30;16.70;;;5.90;99.90;;;;;;4951815;28;20039;-83
2023/02/10 17:43:43;;;;;;;25.05;17.05;;;6.20;99.90;;;;;;4954265;28;20043;-83
2023/02/10 17:46:10;;;;;;;30.45;17.02;;;6.10;99.90;;;;;;4949290;28;20070;-83
2023/02/10 17:48:50;;;;;;;26.50;18.70;;;6.20;99.90;;;;;;4939716;29;20067;-84
2023/02/10 17:51:18;;;;;;;33.92;18.77;;;6.80;99.90;;;;;;4934342;29;20051;-83
2023/02/10 17:53:48;;;;;;;35.08;20.40;;;5.90;99.90;;;;;;4955774;28;20039;-83
2023/02/10 17:56:15;;;;;;;30.08;18.85;;;6.00;99.90;;;;;;4949718;29;20053;-83
2023/02/10 17:58:43;;;;;;;31.30;19.42;;;6.00;99.90;;;;;;4952660;29;20078;-83
2023/02/10 18:01:23;;;;;;;31.05;19.35;;;5.80;99.90;;;;;;4948703;28;20043;-83
2023/02/10 18:03:53;;;;;;;31.80;19.85;;;6.20;99.90;;;;;;4957141;29;20031;-83
2023/02/10 18:06:27;;;;;;;30.35;20.30;;;6.10;99.90;;;;;;4932682;29;20043;-83
2023/02/10 18:08:53;;;;;;;32.88;20.52;;;6.20;99.90;;;;;;4946869;29;20043;-82
2023/02/10 18:11:31;;;;;;;28.27;20.13;;;7.20;99.90;;;;;;4937194;29;20075;-83
2023/02/10 18:14:00;;;;;;;28.23;19.65;;;6.00;99.90;;;;;;4948261;29;20054;-83
2023/02/10 18:16:26;;;;;;;29.05;20.25;;;6.40;99.90;;;;;;4931080;29;20051;-81
2023/02/10 18:18:52;;;;;;;35.70;21.83;;;6.70;99.90;;;;;;4934099;29;20094;-82
2023/02/10 18:21:20;;;;;;;33.33;20.05;;;6.50;99.90;;;;;;4964415;28;20042;-82
2023/02/10 18:23:57;;;;;;;27.25;20.70;;;6.40;99.90;;;;;;4935197;29;20122;-84
2023/02/10 18:26:22;;;;;;;27.33;19.52;;;5.30;99.90;;;;;;4927015;29;20748;-81
2023/02/10 18:32:41;;;;;;;26.38;19.58;;;6.10;99.90;;;;;;4924612;28;20131;-82
2023/02/10 18:35:11;;;;;;;27.35;19.23;;;6.10;99.90;;;;;;4935239;28;20079;-81
2023/02/10 18:37:38;;;;;;;30.25;20.30;;;6.60;99.90;;;;;;4966161;28;20062;-81
2023/02/10 18:40:05;;;;;;;26.88;21.20;;;6.20;99.90;;;;;;4965582;28;20123;-81
2023/02/10 18:42:30;;;;;;;32.28;23.05;;;6.10;99.90;;;;;;4945292;28;20502;-82
2023/02/10 18:44:56;;;;;;;31.50;23.42;;;7.10;99.90;;;;;;4948107;28;20054;-82
2023/02/10 18:47:21;;;;;;;33.00;23.27;;;6.40;99.90;;;;;;4938373;29;20043;-82
2023/02/10 18:49:47;;;;;;;32.72;24.55;;;6.20;99.90;;;;;;4952581;28;21270;-81
2023/02/10 18:52:13;;;;;;;33.95;24.60;;;6.20;99.90;;;;;;4936549;29;20035;-81
2023/02/10 18:54:38;;;;;;;37.00;25.67;;;6.30;99.90;;;;;;4938238;29;20062;-81
2023/02/10 18:57:07;;;;;;;30.88;24.23;;;6.10;99.90;;;;;;4947571;28;20136;-82
2023/02/10 18:59:33;;;;;;;35.30;25.05;;;6.40;99.90;;;;;;4950767;28;20123;-83
2023/02/10 19:01:59;;;;;;;34.33;24.05;;;6.60;99.90;;;;;;4945597;28;20043;-83
2023/02/10 19:07:00;;;;;;;31.27;23.92;;;5.80;99.90;;;;;;5495614;23;20298;-84
2023/02/10 19:09:26;;;;;;;29.50;21.77;;;5.70;99.90;;;;;;4969938;28;20042;-83
2023/02/10 19:11:52;;;;;;;30.80;23.23;;;5.90;99.90;;;;;;4971661;28;20098;-83
2023/02/10 19:14:18;;;;;;;35.40;21.98;;;6.10;99.90;;;;;;4966335;28;20112;-83
2023/02/10 19:16:44;;;;;;;29.95;21.80;;;5.90;99.90;;;;;;4978816;28;20038;-83
2023/02/10 19:19:54;;;;;;;33.65;21.02;;;5.70;99.90;;;;;;4985907;28;20047;-83
2023/02/10 19:26:59;;;;;;;26.70;18.27;;;5.80;99.90;;;;;;4978955;28;20058;-81
2023/02/10 19:33:05;;;;;;;34.05;18.35;;;5.90;99.90;;;;;;4966513;28;20393;-81
2023/02/10 19:35:32;;;;;;;32.97;19.95;;;6.20;99.90;;;;;;4980968;28;20078;-80
2023/02/10 19:37:58;;;;;;;25.38;17.92;;;6.20;99.90;;;;;;4967669;28;20038;-81
2023/02/10 19:40:25;;;;;;;28.63;18.50;;;6.90;99.90;;;;;;4961461;28;20058;-81
2023/02/10 19:42:51;;;;;;;25.88;18.17;;;6.20;99.90;;;;;;4966507;28;20070;-81
2023/02/10 19:45:29;;;;;;;29.52;17.00;;;6.50;99.90;;;;;;4973269;28;20082;-82
2023/02/10 19:48:03;;;;;;;27.00;17.83;;;6.10;99.90;;;;;;4975266;28;20485;-82
2023/02/10 19:50:42;;;;;;;24.17;16.60;;;6.10;99.90;;;;;;4968689;28;20077;-82
2023/02/10 19:53:10;;;;;;;26.77;17.27;;;6.20;99.90;;;;;;4961359;28;20396;-81
2023/02/10 19:55:36;;;;;;;25.83;16.77;;;6.90;99.90;;;;;;4977262;28;20054;-81
2023/02/10 19:58:02;;;;;;;27.90;16.40;;;6.10;99.90;;;;;;4959085;28;20059;-81
2023/02/10 20:00:28;;;;;;;26.63;17.98;;;6.00;99.90;;;;;;4978335;28;20035;-81
2023/02/10 20:03:04;;;;;;;28.02;17.02;;;6.40;99.90;;;;;;4956282;28;20086;-83
2023/02/10 20:05:33;;;;;;;27.67;17.45;;;6.60;99.90;;;;;;4961535;28;20373;-81
2023/02/10 20:07:58;;;;;;;25.20;15.88;;;6.20;99.90;;;;;;4974183;28;20046;-81
2023/02/10 20:10:27;;;;;;;29.58;16.48;;;6.60;99.90;;;;;;4969235;28;20654;-82
2023/02/10 20:12:53;;;;;;;24.58;17.35;;;6.40;99.90;;;;;;4959317;28;20055;-80
2023/02/10 20:15:18;;;;;;;29.20;17.92;;;6.40;99.90;;;;;;4974970;28;20043;-79
2023/02/10 20:17:44;;;;;;;29.60;16.67;;;6.40;99.90;;;;;;4954890;28;20053;-80
2023/02/10 20:20:10;;;;;;;26.38;18.02;;;6.90;99.90;;;;;;4976134;28;20054;-81
2023/02/10 20:22:36;;;;;;;28.15;17.05;;;6.80;99.90;;;;;;4960209;28;20043;-81
2023/02/10 20:25:02;;;;;;;27.60;18.65;;;6.40;99.90;;;;;;4954676;28;20053;-81
2023/02/10 20:27:27;;;;;;;28.70;17.27;;;6.30;99.90;;;;;;4965687;28;20405;-81
2023/02/10 20:29:53;;;;;;;30.40;17.83;;;6.60;99.90;;;;;;4989037;28;20441;-81
2023/02/10 20:32:19;;;;;;;28.80;18.05;;;6.30;99.90;;;;;;4971050;28;20050;-81
2023/02/10 20:34:45;;;;;;;24.65;18.10;;;6.50;99.90;;;;;;4951936;28;20389;-80
2023/02/10 20:37:10;;;;;;;30.48;16.85;;;6.40;99.90;;;;;;4978062;28;20079;-81
2023/02/10 20:39:36;;;;;;;25.45;16.33;;;6.50;99.90;;;;;;4969775;28;20042;-82
2023/02/10 20:42:02;;;;;;;25.80;16.35;;;6.50;99.90;;;;;;4951755;28;20397;-82
2023/02/10 20:44:28;;;;;;;26.73;17.80;;;6.70;99.90;;;;;;4990256;28;20098;-82
2023/02/10 20:46:54;;;;;;;34.10;17.00;;;6.50;99.90;;;;;;4974684;28;20133;-81
2023/02/10 20:49:19;;;;;;;27.40;15.65;;;6.70;99.90;;;;;;4975631;28;20078;-81
2023/02/10 20:51:45;;;;;;;33.30;16.27;;;6.40;99.90;;;;;;4961151;28;20073;-80
2023/02/10 20:54:14;;;;;;;25.42;16.08;;;6.80;99.90;;;;;;4981725;28;20101;-80
2023/02/10 20:56:40;;;;;;;27.20;16.02;;;6.40;99.90;;;;;;4977137;28;20125;-81
2023/02/10 20:59:05;;;;;;;21.33;14.52;;;6.50;99.90;;;;;;4972884;28;20125;-80
2023/02/10 21:01:34;;;;;;;22.00;15.05;;;6.40;99.90;;;;;;4973426;28;20498;-80
2023/02/10 21:04:03;;;;;;;24.80;15.40;;;6.60;99.90;;;;;;4955093;28;20042;-80
2023/02/10 21:06:31;;;;;;;28.42;15.07;;;6.40;99.90;;;;;;4976926;28;20107;-81
2023/02/10 21:08:57;;;;;;;27.67;16.08;;;6.90;99.90;;;;;;4964941;28;20031;-80
2023/02/10 21:11:26;;;;;;;22.50;14.93;;;6.40;99.90;;;;;;4973659;28;20684;-81
2023/02/10 21:13:52;;;;;;;33.45;15.65;;;6.40;99.90;;;;;;4987706;28;20027;-81
2023/02/10 21:16:20;;;;;;;25.80;14.90;;;6.80;99.90;;;;;;4952805;28;20057;-80
2023/02/10 21:18:46;;;;;;;23.63;14.45;;;6.80;99.90;;;;;;4961511;28;20095;-80
2023/02/10 21:21:13;;;;;;;24.88;14.57;;;6.60;99.90;;;;;;4965226;28;20497;-80
2023/02/10 21:23:39;;;;;;;21.92;15.30;;;6.50;99.90;;;;;;4976796;28;20031;-81
2023/02/10 21:26:08;;;;;;;25.42;14.80;;;6.70;99.90;;;;;;4963713;28;20057;-81
2023/02/10 21:28:35;;;;;;;24.35;15.18;;;6.70;99.90;;;;;;4977468;28;20667;-80
2023/02/10 21:31:11;;;;;;;23.98;15.65;;;7.20;99.90;;;;;;4976172;28;21828;-81
2023/02/10 21:33:39;;;;;;;27.75;15.88;;;6.50;99.90;;;;;;4972593;28;20118;-81
2023/02/10 21:38:33;;;;;;;26.92;15.07;;;6.50;99.90;;;;;;4992378;28;20046;-82
2023/02/10 21:41:04;;;;;;;28.95;14.57;;;6.40;99.90;;;;;;4976641;28;20041;-82
2023/02/10 21:43:37;;;;;;;31.17;14.35;;;6.50;99.90;;;;;;4996079;28;20507;-82
2023/02/10 21:46:12;;;;;;;25.52;13.98;;;6.50;99.90;;;;;;4977001;28;20049;-83
2023/02/10 21:48:53;;;;;;;26.92;13.13;;;6.40;99.90;;;;;;4990985;28;20046;-82
2023/02/10 21:51:54;;;;;;;28.17;13.55;;;6.50;99.90;;;;;;5007127;28;20048;-82
2023/02/10 21:54:47;;;;;;;;;;;;;;;;;;;;;
2023/02/10 21:57:29;;;;;;;30.55;12.85;;;6.50;99.90;;;;;;4983848;28;20034;-82
2023/02/10 22:03:29;;;;;;;25.27;12.27;;;6.50;99.90;;;;;;4968525;28;20034;-82
2023/02/10 22:06:18;;;;;;;27.30;12.18;;;7.30;99.90;;;;;;4969361;28;20035;-82
2023/02/10 22:09:05;;;;;;;20.33;11.82;;;6.80;99.90;;;;;;4966360;28;20042;-82
2023/02/10 22:11:53;;;;;;;22.23;10.98;;;6.50;99.90;;;;;;4947486;28;20038;-82
2023/02/10 22:14:27;;;;;;;27.05;12.63;;;5.90;99.90;;;;;;4963372;28;20082;-83
2023/02/10 22:17:14;;;;;;;25.58;12.23;;;7.30;99.90;;;;;;4964941;28;20046;-82
2023/02/10 22:19:55;;;;;;;26.75;10.90;;;6.10;99.90;;;;;;4976286;28;20078;-83
2023/02/10 22:22:31;;;;;;;22.42;10.95;;;6.60;99.90;;;;;;4984252;28;20170;-83
2023/02/10 22:25:13;;;;;;;22.10;11.02;;;6.60;99.90;;;;;;4945244;28;20043;-83
2023/02/10 22:28:00;;;;;;;;;;;;;;;;;;;;;
2023/02/10 22:30:39;;;;;;;21.58;10.18;;;6.60;99.90;;;;;;4973358;28;20115;-82
2023/02/10 22:33:08;;;;;;;25.80;10.48;;;7.40;99.90;;;;;;4956061;28;20096;-82
2023/02/10 22:35:54;;;;;;;25.95;10.88;;;6.50;99.90;;;;;;4948775;28;20390;-82
2023/02/10 22:38:30;;;;;;;25.30;9.82;;;6.80;99.90;;;;;;4953713;28;20562;-83
2023/02/10 22:48:41;;;;;;;26.30;9.10;;;6.40;99.90;;;;;;4971913;28;20039;-82
2023/02/10 22:51:17;;;;;;;26.67;9.35;;;6.60;99.90;;;;;;4969812;28;20830;-82
2023/02/10 22:54:23;;;;;;;22.83;8.68;;;6.50;99.90;;;;;;4967482;28;20051;-82
2023/02/10 22:57:28;;;;;;;19.13;8.38;;;6.60;99.90;;;;;;4929507;28;20401;-82
2023/02/10 23:00:27;;;;;;;18.40;7.50;;;6.50;99.90;;;;;;4947004;28;20412;-82
2023/02/10 23:03:33;;;;;;;23.30;7.47;;;6.90;99.90;;;;;;4923349;28;20413;-83
2023/02/10 23:06:22;;;;;;;20.38;7.80;;;6.60;99.90;;;;;;4938803;28;20118;-83
2023/02/10 23:09:15;;;;;;;16.77;6.20;;;6.80;99.90;;;;;;4971053;28;20042;-83
2023/02/10 23:11:59;;;;;;;23.35;7.82;;;7.50;99.90;;;;;;4974107;28;20050;-83
2023/02/10 23:14:31;;;;;;;22.83;6.82;;;6.60;99.90;;;;;;4969697;28;20129;-83
2023/02/10 23:17:07;;;;;;;25.48;7.60;;;7.20;99.90;;;;;;4973864;28;20046;-83
2023/02/10 23:20:00;;;;;;;23.45;6.78;;;6.60;99.90;;;;;;4954996;28;20448;-83
2023/02/10 23:22:49;;;;;;;28.25;8.95;;;6.70;99.90;;;;;;4977566;28;20053;-82
2023/02/10 23:26:11;;;;;;;20.77;5.93;;;6.70;99.90;;;;;;4970706;28;20046;-82
2023/02/10 23:28:59;;;;;;;21.38;6.65;;;6.70;99.90;;;;;;4969509;28;20039;-82
2023/02/10 23:36:18;;;;;;;20.08;6.30;;;6.70;99.90;;;;;;4962347;28;20041;-82
2023/02/10 23:38:58;;;;;;;17.90;6.25;;;6.40;99.90;;;;;;4931237;28;20516;-83
2023/02/10 23:41:55;;;;;;;24.30;6.43;;;6.90;99.90;;;;;;4956405;28;20042;-82
2023/02/10 23:44:53;;;;;;;21.63;6.25;;;6.60;99.90;;;;;;4955600;28;20070;-82
2023/02/10 23:47:32;;;;;;;23.05;5.90;;;6.70;99.90;;;;;;4952204;28;20851;-82
2023/02/10 23:50:04;;;;;;;20.38;6.40;;;6.60;99.90;;;;;;4988211;28;20073;-82
2023/02/10 23:52:35;;;;;;;19.92;5.88;;;6.70;99.90;;;;;;4968552;28;20035;-83
2023/02/10 23:55:37;;;;;;;23.38;6.30;;;7.20;99.90;;;;;;4957074;28;20085;-83
2023/02/10 23:58:28;;;;;;;19.55;5.80;;;6.80;99.90;;;;;;4938774;28;20047;-82
